EPSC

Szczecin-Goleniów "Solidarność" Airport

Goleniow, Poland
TAF EPSC 211730Z 2118/2218 28014KT 9999 SCT020 PROB40 TEMPO 2118/2122 28015G27KT -SHRA BKN014CB PROB40 TEMPO 2122/2209 28015G25KT TEMPO 2209/2218 27015G28KT -SHRA SCT030CB
Issued Valid From Valid To
Jun-21 @ 17:30 UTC
(38 minutes ago)
Jun-21 @ 18:00 UTC
(8 minutes ago)
Jun-22 @ 18:00 UTC
(in 24 hours)
Jun-21 @ 18:00 to Jun-22 @ 18:00
TAF EPSC 211730Z 2118/2218 28014KT 9999 SCT020
Wind Visibility Clouds
280° at 14 knots 10,000+ meters
  • Scattered at 2,000' AGL
Temporary  (Probability 40%) Jun-21 @ 18:00 to Jun-21 @ 22:00
PROB40 TEMPO 2118/2122 28015G27KT -SHRA BKN014CB
Wind Clouds Conditions
280° at 15 knots
 Gusting to 27 knots
  • Broken at 1,400' AGL
  • Light Rain
Temporary  (Probability 40%) Jun-21 @ 22:00 to Jun-22 @ 09:00
PROB40 TEMPO 2122/2209 28015G25KT
Wind
280° at 15 knots
 Gusting to 25 knots
Temporary Jun-22 @ 09:00 to Jun-22 @ 18:00
TEMPO 2209/2218 27015G28KT -SHRA SCT030CB
Wind Clouds Conditions
270° at 15 knots
 Gusting to 28 knots
  • Scattered at 3,000' AGL
  • Light Rain
TAF EPSC 211730Z 2118/2218 28014KT 9999 SCT020 PROB40 TEMPO 2118/2122 28015G27KT -SHRA BKN014CB PROB40 TEMPO 2122/2209 28015G25KT TEMPO 2209/2218 27015G28KT -SHRA SCT030CB
Issued Jun-21 @ 17:30 UTC
(38 minutes ago)
Valid From Jun-21 @ 18:00 UTC
(8 minutes ago)
Valid To Jun-22 @ 18:00 UTC
(in 24 hours)
Jun-21 @ 18:00 - Jun-22 @ 18:00
Wind Visibility
280° at 14 knots 10,000+ meters
Clouds
  • Scattered at 2,000' AGL
Probability 40% Temporary Jun-21 @ 18:00 - Jun-21 @ 22:00
Wind
280° at 15 knots
 Gusting to 27 knots
Clouds
  • Broken at 1,400' AGL
Conditions
  • Light Rain
Probability 40% Temporary Jun-21 @ 22:00 - Jun-22 @ 09:00
Wind
280° at 15 knots
 Gusting to 25 knots
Temporary Jun-22 @ 09:00 - Jun-22 @ 18:00
Wind
270° at 15 knots
 Gusting to 28 knots
Clouds
  • Scattered at 3,000' AGL
Conditions
  • Light Rain